sensor_id;sensor_type;location;lat;lon;timestamp;pressure;altitude;pressure_sealevel;temperature;humidity
75039;BME280;63609;49.992;14.512;2024-03-25T00:01:38;96739.59;;;1.76;69.59
75039;BME280;63609;49.992;14.512;2024-03-25T00:04:04;96726.78;;;2.13;68.67
75039;BME280;63609;49.992;14.512;2024-03-25T00:06:30;96724.47;;;1.98;68.71
75039;BME280;63609;49.992;14.512;2024-03-25T00:09:02;96728.16;;;1.86;69.35
75039;BME280;63609;49.992;14.512;2024-03-25T00:11:29;96722.06;;;1.86;69.41
75039;BME280;63609;49.992;14.512;2024-03-25T00:13:54;96736.25;;;1.94;69.15
75039;BME280;63609;49.992;14.512;2024-03-25T00:16:22;96737.75;;;2.18;68.50
75039;BME280;63609;49.992;14.512;2024-03-25T00:18:48;96740.88;;;2.02;68.66
75039;BME280;63609;49.992;14.512;2024-03-25T00:21:14;96740.38;;;2.48;67.32
75039;BME280;63609;49.992;14.512;2024-03-25T00:23:40;96739.25;;;2.11;68.18
75039;BME280;63609;49.992;14.512;2024-03-25T00:26:06;96734.81;;;2.11;68.03
75039;BME280;63609;49.992;14.512;2024-03-25T00:28:32;96733.97;;;2.11;68.37
75039;BME280;63609;49.992;14.512;2024-03-25T00:30:58;96734.72;;;2.22;67.77
75039;BME280;63609;49.992;14.512;2024-03-25T00:33:24;96731.41;;;2.30;67.57
75039;BME280;63609;49.992;14.512;2024-03-25T00:35:50;96743.94;;;2.07;68.16
75039;BME280;63609;49.992;14.512;2024-03-25T00:38:16;96749.66;;;2.43;67.50
75039;BME280;63609;49.992;14.512;2024-03-25T00:40:42;96741.31;;;2.38;67.52
75039;BME280;63609;49.992;14.512;2024-03-25T00:43:07;96741.03;;;2.41;67.16
75039;BME280;63609;49.992;14.512;2024-03-25T00:45:33;96731.56;;;2.28;67.53
75039;BME280;63609;49.992;14.512;2024-03-25T00:47:59;96731.19;;;2.02;68.47
75039;BME280;63609;49.992;14.512;2024-03-25T00:50:26;96737.63;;;2.19;68.28
75039;BME280;63609;49.992;14.512;2024-03-25T00:52:52;96732.06;;;2.13;67.73
75039;BME280;63609;49.992;14.512;2024-03-25T00:55:18;96735.63;;;2.42;66.84
75039;BME280;63609;49.992;14.512;2024-03-25T00:57:45;96735.13;;;2.58;66.45
75039;BME280;63609;49.992;14.512;2024-03-25T01:03:31;96734.03;;;2.20;68.16
75039;BME280;63609;49.992;14.512;2024-03-25T01:05:57;96719.75;;;2.23;67.99
75039;BME280;63609;49.992;14.512;2024-03-25T01:08:22;96721.94;;;2.18;68.08
75039;BME280;63609;49.992;14.512;2024-03-25T01:10:48;96718.94;;;2.32;67.88
75039;BME280;63609;49.992;14.512;2024-03-25T01:13:14;96714.50;;;2.23;67.00
75039;BME280;63609;49.992;14.512;2024-03-25T01:15:40;96718.19;;;2.11;67.37
75039;BME280;63609;49.992;14.512;2024-03-25T01:18:07;96698.72;;;2.32;66.87
75039;BME280;63609;49.992;14.512;2024-03-25T01:20:33;96721.69;;;2.21;66.93
75039;BME280;63609;49.992;14.512;2024-03-25T01:22:59;96696.06;;;1.92;67.30
75039;BME280;63609;49.992;14.512;2024-03-25T01:25:25;96709.66;;;2.28;67.27
75039;BME280;63609;49.992;14.512;2024-03-25T01:27:51;96722.34;;;2.44;66.69
75039;BME280;63609;49.992;14.512;2024-03-25T01:30:17;96713.09;;;2.19;66.54
75039;BME280;63609;49.992;14.512;2024-03-25T01:32:44;96722.38;;;2.23;67.11
75039;BME280;63609;49.992;14.512;2024-03-25T01:35:13;96708.81;;;2.27;66.99
75039;BME280;63609;49.992;14.512;2024-03-25T01:37:39;96711.72;;;2.24;67.05
75039;BME280;63609;49.992;14.512;2024-03-25T01:40:06;96712.97;;;2.30;66.24
75039;BME280;63609;49.992;14.512;2024-03-25T01:42:32;96717.19;;;2.42;66.55
75039;BME280;63609;49.992;14.512;2024-03-25T01:44:58;96718.31;;;2.40;66.63
75039;BME280;63609;49.992;14.512;2024-03-25T01:47:25;96706.84;;;2.20;67.50
75039;BME280;63609;49.992;14.512;2024-03-25T01:49:51;96706.59;;;2.23;67.32
75039;BME280;63609;49.992;14.512;2024-03-25T01:52:20;96714.59;;;2.12;67.39
75039;BME280;63609;49.992;14.512;2024-03-25T01:54:48;96707.97;;;2.17;67.39
75039;BME280;63609;49.992;14.512;2024-03-25T01:57:15;96718.44;;;2.38;66.31
75039;BME280;63609;49.992;14.512;2024-03-25T01:59:41;96713.19;;;2.08;66.56
75039;BME280;63609;49.992;14.512;2024-03-25T02:02:08;96709.38;;;2.31;66.18
75039;BME280;63609;49.992;14.512;2024-03-25T02:04:38;96715.63;;;2.30;65.86
75039;BME280;63609;49.992;14.512;2024-03-25T02:07:07;96714.34;;;2.24;66.90
75039;BME280;63609;49.992;14.512;2024-03-25T02:09:34;96711.81;;;2.53;65.74
75039;BME280;63609;49.992;14.512;2024-03-25T02:12:01;96723.44;;;2.41;66.17
75039;BME280;63609;49.992;14.512;2024-03-25T02:14:27;96715.75;;;2.28;66.25
75039;BME280;63609;49.992;14.512;2024-03-25T02:16:53;96719.69;;;2.34;65.80
75039;BME280;63609;49.992;14.512;2024-03-25T02:19:20;96719.75;;;2.63;65.54
75039;BME280;63609;49.992;14.512;2024-03-25T02:21:47;96715.69;;;2.40;65.47
75039;BME280;63609;49.992;14.512;2024-03-25T02:24:16;96722.41;;;2.32;66.11
75039;BME280;63609;49.992;14.512;2024-03-25T02:26:45;96723.72;;;2.38;65.83
75039;BME280;63609;49.992;14.512;2024-03-25T02:29:11;96712.28;;;2.28;65.77
75039;BME280;63609;49.992;14.512;2024-03-25T02:31:37;96712.56;;;2.25;65.93
75039;BME280;63609;49.992;14.512;2024-03-25T02:34:03;96731.09;;;2.54;65.35
75039;BME280;63609;49.992;14.512;2024-03-25T02:36:29;96729.13;;;2.36;65.64
75039;BME280;63609;49.992;14.512;2024-03-25T02:38:56;96738.53;;;2.39;65.73
75039;BME280;63609;49.992;14.512;2024-03-25T02:41:22;96737.50;;;2.61;65.18
75039;BME280;63609;49.992;14.512;2024-03-25T02:43:50;96731.06;;;2.44;65.94
75039;BME280;63609;49.992;14.512;2024-03-25T02:46:16;96727.88;;;2.41;66.81
75039;BME280;63609;49.992;14.512;2024-03-25T02:48:42;96721.94;;;2.18;66.65
75039;BME280;63609;49.992;14.512;2024-03-25T02:51:08;96713.75;;;2.11;66.71
75039;BME280;63609;49.992;14.512;2024-03-25T02:53:34;96729.16;;;2.56;65.78
75039;BME280;63609;49.992;14.512;2024-03-25T02:56:00;96740.94;;;2.52;65.86
75039;BME280;63609;49.992;14.512;2024-03-25T02:58:26;96733.69;;;2.34;66.02
75039;BME280;63609;49.992;14.512;2024-03-25T03:00:52;96737.31;;;2.43;65.70
75039;BME280;63609;49.992;14.512;2024-03-25T03:03:18;96720.81;;;2.41;65.63
75039;BME280;63609;49.992;14.512;2024-03-25T03:05:44;96729.16;;;2.56;65.07
75039;BME280;63609;49.992;14.512;2024-03-25T03:08:09;96733.00;;;2.42;65.47
75039;BME280;63609;49.992;14.512;2024-03-25T03:10:35;96745.25;;;2.53;65.19
75039;BME280;63609;49.992;14.512;2024-03-25T03:13:01;96735.72;;;2.31;64.91
75039;BME280;63609;49.992;14.512;2024-03-25T03:15:27;96747.03;;;2.52;64.34
75039;BME280;63609;49.992;14.512;2024-03-25T03:17:53;96746.50;;;2.58;63.56
75039;BME280;63609;49.992;14.512;2024-03-25T03:20:19;96752.16;;;2.54;64.44
75039;BME280;63609;49.992;14.512;2024-03-25T03:22:46;96755.31;;;2.38;64.39
75039;BME280;63609;49.992;14.512;2024-03-25T03:25:12;96753.66;;;2.37;64.44
75039;BME280;63609;49.992;14.512;2024-03-25T03:27:38;96765.72;;;2.80;63.61
75039;BME280;63609;49.992;14.512;2024-03-25T03:30:04;96756.03;;;2.50;63.96
75039;BME280;63609;49.992;14.512;2024-03-25T03:32:30;96760.22;;;2.52;64.16
75039;BME280;63609;49.992;14.512;2024-03-25T03:34:56;96756.72;;;2.42;64.38
75039;BME280;63609;49.992;14.512;2024-03-25T03:37:21;96755.09;;;2.20;65.15
75039;BME280;63609;49.992;14.512;2024-03-25T03:39:47;96757.44;;;2.23;64.85
75039;BME280;63609;49.992;14.512;2024-03-25T03:42:13;96755.72;;;2.33;64.77
75039;BME280;63609;49.992;14.512;2024-03-25T03:44:39;96756.22;;;2.27;64.91
75039;BME280;63609;49.992;14.512;2024-03-25T03:47:05;96756.84;;;2.10;64.91
75039;BME280;63609;49.992;14.512;2024-03-25T03:49:31;96758.06;;;2.06;65.21
75039;BME280;63609;49.992;14.512;2024-03-25T03:51:57;96756.47;;;1.94;65.40
75039;BME280;63609;49.992;14.512;2024-03-25T03:54:23;96763.63;;;2.13;65.14
75039;BME280;63609;49.992;14.512;2024-03-25T03:56:49;96767.94;;;1.93;65.74
75039;BME280;63609;49.992;14.512;2024-03-25T03:59:14;96774.97;;;2.03;65.57
75039;BME280;63609;49.992;14.512;2024-03-25T04:01:40;96773.72;;;1.87;65.27
75039;BME280;63609;49.992;14.512;2024-03-25T04:04:06;96773.47;;;2.11;65.04
75039;BME280;63609;49.992;14.512;2024-03-25T04:06:32;96772.59;;;2.00;64.81
75039;BME280;63609;49.992;14.512;2024-03-25T04:08:58;96783.94;;;2.31;63.97
75039;BME280;63609;49.992;14.512;2024-03-25T04:11:24;96784.25;;;2.08;64.17
75039;BME280;63609;49.992;14.512;2024-03-25T04:13:50;96791.09;;;2.20;64.24
75039;BME280;63609;49.992;14.512;2024-03-25T04:16:16;96797.56;;;2.06;64.86
75039;BME280;63609;49.992;14.512;2024-03-25T04:18:42;96794.13;;;2.15;64.02
75039;BME280;63609;49.992;14.512;2024-03-25T04:21:12;96800.44;;;2.03;65.14
75039;BME280;63609;49.992;14.512;2024-03-25T04:23:38;96811.22;;;2.21;64.37
75039;BME280;63609;49.992;14.512;2024-03-25T04:26:04;96802.28;;;1.91;65.44
75039;BME280;63609;49.992;14.512;2024-03-25T04:28:32;96811.81;;;1.83;65.89
75039;BME280;63609;49.992;14.512;2024-03-25T04:30:58;96824.63;;;1.97;65.50
75039;BME280;63609;49.992;14.512;2024-03-25T04:33:24;96819.09;;;2.00;65.15
75039;BME280;63609;49.992;14.512;2024-03-25T04:35:50;96822.91;;;2.07;65.59
75039;BME280;63609;49.992;14.512;2024-03-25T04:38:16;96825.13;;;2.32;64.51
75039;BME280;63609;49.992;14.512;2024-03-25T04:40:42;96833.69;;;2.25;64.39
75039;BME280;63609;49.992;14.512;2024-03-25T04:43:10;96829.91;;;2.39;63.89
75039;BME280;63609;49.992;14.512;2024-03-25T04:45:36;96840.22;;;2.30;63.97
75039;BME280;63609;49.992;14.512;2024-03-25T04:48:02;96840.22;;;2.30;64.36
75039;BME280;63609;49.992;14.512;2024-03-25T04:50:28;96847.88;;;2.64;63.31
75039;BME280;63609;49.992;14.512;2024-03-25T04:52:55;96850.69;;;2.42;64.46
75039;BME280;63609;49.992;14.512;2024-03-25T04:55:21;96847.13;;;2.52;64.08
75039;BME280;63609;49.992;14.512;2024-03-25T04:57:47;96847.28;;;2.30;64.68
75039;BME280;63609;49.992;14.512;2024-03-25T05:00:13;96868.16;;;2.22;64.91
75039;BME280;63609;49.992;14.512;2024-03-25T05:02:39;96850.69;;;2.21;64.81
75039;BME280;63609;49.992;14.512;2024-03-25T05:05:05;96870.50;;;2.15;65.50
75039;BME280;63609;49.992;14.512;2024-03-25T05:07:33;96870.03;;;2.10;66.17
75039;BME280;63609;49.992;14.512;2024-03-25T05:09:59;96874.31;;;2.32;65.36
75039;BME280;63609;49.992;14.512;2024-03-25T05:12:25;96878.44;;;2.25;64.98
75039;BME280;63609;49.992;14.512;2024-03-25T05:14:58;96882.28;;;2.21;65.31
75039;BME280;63609;49.992;14.512;2024-03-25T05:17:24;96882.44;;;2.40;64.78
75039;BME280;63609;49.992;14.512;2024-03-25T05:19:50;96879.28;;;2.04;65.82
75039;BME280;63609;49.992;14.512;2024-03-25T05:22:16;96879.56;;;1.90;66.65
75039;BME280;63609;49.992;14.512;2024-03-25T05:24:42;96888.53;;;2.20;65.54
75039;BME280;63609;49.992;14.512;2024-03-25T05:27:08;96884.03;;;2.31;65.46
75039;BME280;63609;49.992;14.512;2024-03-25T05:29:34;96893.09;;;2.39;65.01
75039;BME280;63609;49.992;14.512;2024-03-25T05:32:01;96890.00;;;2.13;66.06
75039;BME280;63609;49.992;14.512;2024-03-25T05:34:28;96889.38;;;2.20;65.29
75039;BME280;63609;49.992;14.512;2024-03-25T05:36:54;96907.53;;;2.44;64.67
75039;BME280;63609;49.992;14.512;2024-03-25T05:39:20;96897.78;;;2.35;65.02
75039;BME280;63609;49.992;14.512;2024-03-25T05:41:48;96905.34;;;2.28;64.96
75039;BME280;63609;49.992;14.512;2024-03-25T05:44:14;96905.53;;;2.16;65.56
75039;BME280;63609;49.992;14.512;2024-03-25T05:46:40;96898.94;;;2.21;65.40
75039;BME280;63609;49.992;14.512;2024-03-25T05:49:06;96897.75;;;2.56;63.95
75039;BME280;63609;49.992;14.512;2024-03-25T05:51:34;96896.03;;;2.24;64.86
75039;BME280;63609;49.992;14.512;2024-03-25T05:54:01;96899.00;;;2.31;64.58
75039;BME280;63609;49.992;14.512;2024-03-25T05:56:27;96902.97;;;2.25;64.43
75039;BME280;63609;49.992;14.512;2024-03-25T05:58:58;96901.66;;;2.61;63.81
75039;BME280;63609;49.992;14.512;2024-03-25T06:01:25;96898.44;;;2.79;63.22
75039;BME280;63609;49.992;14.512;2024-03-25T06:03:51;96908.69;;;2.10;65.42
75039;BME280;63609;49.992;14.512;2024-03-25T06:06:18;96919.19;;;2.42;65.00
75039;BME280;63609;49.992;14.512;2024-03-25T06:08:44;96917.44;;;2.52;64.27
75039;BME280;63609;49.992;14.512;2024-03-25T06:11:10;96920.06;;;2.73;63.54
75039;BME280;63609;49.992;14.512;2024-03-25T06:13:36;96917.34;;;2.63;63.70
75039;BME280;63609;49.992;14.512;2024-03-25T06:16:02;96921.66;;;2.64;63.86
75039;BME280;63609;49.992;14.512;2024-03-25T06:18:27;96931.78;;;2.89;63.38
75039;BME280;63609;49.992;14.512;2024-03-25T06:20:53;96932.09;;;2.65;63.34
75039;BME280;63609;49.992;14.512;2024-03-25T06:23:27;96933.63;;;2.68;63.90
75039;BME280;63609;49.992;14.512;2024-03-25T06:25:54;96934.47;;;2.68;63.37
75039;BME280;63609;49.992;14.512;2024-03-25T06:28:21;96937.09;;;2.48;63.84
75039;BME280;63609;49.992;14.512;2024-03-25T06:30:48;96940.41;;;2.91;62.26
75039;BME280;63609;49.992;14.512;2024-03-25T06:33:33;96944.75;;;2.51;63.29
75039;BME280;63609;49.992;14.512;2024-03-25T06:36:18;96939.16;;;2.44;63.37
75039;BME280;63609;49.992;14.512;2024-03-25T06:38:46;96949.09;;;2.82;61.70
75039;BME280;63609;49.992;14.512;2024-03-25T06:41:12;96957.44;;;2.87;62.23
75039;BME280;63609;49.992;14.512;2024-03-25T06:43:38;96954.00;;;2.66;61.56
75039;BME280;63609;49.992;14.512;2024-03-25T06:46:07;96965.88;;;2.81;61.36
75039;BME280;63609;49.992;14.512;2024-03-25T06:48:33;96978.53;;;2.87;61.46
75039;BME280;63609;49.992;14.512;2024-03-25T06:51:01;96971.31;;;2.89;61.20
75039;BME280;63609;49.992;14.512;2024-03-25T06:53:29;96976.13;;;3.36;59.35
75039;BME280;63609;49.992;14.512;2024-03-25T06:55:58;96979.94;;;3.22;58.99
75039;BME280;63609;49.992;14.512;2024-03-25T06:58:25;96969.16;;;3.65;57.95
75039;BME280;63609;49.992;14.512;2024-03-25T07:00:52;96987.09;;;3.71;57.88
75039;BME280;63609;49.992;14.512;2024-03-25T07:03:19;96990.13;;;3.67;58.64
75039;BME280;63609;49.992;14.512;2024-03-25T07:05:46;96984.81;;;3.57;58.58
75039;BME280;63609;49.992;14.512;2024-03-25T07:08:13;96993.81;;;3.54;59.52
75039;BME280;63609;49.992;14.512;2024-03-25T07:10:41;96998.03;;;3.97;59.04
75039;BME280;63609;49.992;14.512;2024-03-25T07:13:07;96988.31;;;4.07;56.70
75039;BME280;63609;49.992;14.512;2024-03-25T07:15:33;97002.34;;;4.27;56.76
75039;BME280;63609;49.992;14.512;2024-03-25T07:17:58;97008.31;;;4.19;56.96
75039;BME280;63609;49.992;14.512;2024-03-25T07:20:26;97010.13;;;4.58;56.12
75039;BME280;63609;49.992;14.512;2024-03-25T07:22:55;97019.72;;;4.20;57.09
75039;BME280;63609;49.992;14.512;2024-03-25T07:25:22;97006.97;;;3.75;58.07
75039;BME280;63609;49.992;14.512;2024-03-25T07:27:48;97015.22;;;3.91;57.14
75039;BME280;63609;49.992;14.512;2024-03-25T07:30:14;97013.69;;;3.89;56.81
75039;BME280;63609;49.992;14.512;2024-03-25T07:32:40;97027.16;;;3.55;56.99
75039;BME280;63609;49.992;14.512;2024-03-25T07:35:06;97029.19;;;3.73;57.21
75039;BME280;63609;49.992;14.512;2024-03-25T07:37:34;97028.16;;;3.95;57.06
75039;BME280;63609;49.992;14.512;2024-03-25T07:40:00;97035.69;;;4.09;57.23
75039;BME280;63609;49.992;14.512;2024-03-25T07:42:26;97038.50;;;3.77;57.06
75039;BME280;63609;49.992;14.512;2024-03-25T07:44:52;97043.06;;;4.05;57.56
75039;BME280;63609;49.992;14.512;2024-03-25T07:47:18;97044.47;;;4.19;57.07
75039;BME280;63609;49.992;14.512;2024-03-25T07:49:44;97037.50;;;4.18;56.69
75039;BME280;63609;49.992;14.512;2024-03-25T07:52:10;97031.25;;;4.19;56.45
75039;BME280;63609;49.992;14.512;2024-03-25T07:54:36;97039.75;;;4.22;55.97
75039;BME280;63609;49.992;14.512;2024-03-25T07:57:04;97031.00;;;4.90;55.06
75039;BME280;63609;49.992;14.512;2024-03-25T07:59:30;97038.09;;;4.79;54.54
75039;BME280;63609;49.992;14.512;2024-03-25T08:01:56;97047.41;;;5.03;54.91
75039;BME280;63609;49.992;14.512;2024-03-25T08:04:22;97040.56;;;5.10;53.18
75039;BME280;63609;49.992;14.512;2024-03-25T08:06:49;97041.25;;;5.12;53.39
75039;BME280;63609;49.992;14.512;2024-03-25T08:09:14;97040.47;;;5.48;53.24
75039;BME280;63609;49.992;14.512;2024-03-25T08:11:42;97044.69;;;5.41;53.80
75039;BME280;63609;49.992;14.512;2024-03-25T08:14:11;97038.09;;;4.99;53.06
75039;BME280;63609;49.992;14.512;2024-03-25T08:16:37;97040.84;;;5.63;52.48
75039;BME280;63609;49.992;14.512;2024-03-25T08:19:04;97041.56;;;5.56;52.21
75039;BME280;63609;49.992;14.512;2024-03-25T08:21:29;97043.03;;;5.21;52.41
75039;BME280;63609;49.992;14.512;2024-03-25T08:23:55;97042.31;;;5.38;53.29
75039;BME280;63609;49.992;14.512;2024-03-25T08:26:21;97061.94;;;5.45;53.69
75039;BME280;63609;49.992;14.512;2024-03-25T08:28:47;97062.72;;;5.09;52.98
75039;BME280;63609;49.992;14.512;2024-03-25T08:31:15;97051.47;;;4.68;53.99
75039;BME280;63609;49.992;14.512;2024-03-25T08:33:41;97058.13;;;4.43;53.72
75039;BME280;63609;49.992;14.512;2024-03-25T08:36:07;97052.44;;;4.38;54.15
75039;BME280;63609;49.992;14.512;2024-03-25T08:38:34;97068.31;;;4.96;53.23
75039;BME280;63609;49.992;14.512;2024-03-25T08:41:00;97071.09;;;4.95;53.34
75039;BME280;63609;49.992;14.512;2024-03-25T08:43:26;97071.63;;;4.89;53.20
75039;BME280;63609;49.992;14.512;2024-03-25T08:45:52;97069.00;;;4.89;53.27
75039;BME280;63609;49.992;14.512;2024-03-25T08:48:18;97073.31;;;4.99;53.25
75039;BME280;63609;49.992;14.512;2024-03-25T08:50:44;97071.88;;;5.14;52.53
75039;BME280;63609;49.992;14.512;2024-03-25T08:53:10;97074.97;;;5.00;52.44
75039;BME280;63609;49.992;14.512;2024-03-25T08:55:36;97068.84;;;5.09;51.65
75039;BME280;63609;49.992;14.512;2024-03-25T08:58:02;97074.56;;;4.85;53.20
75039;BME280;63609;49.992;14.512;2024-03-25T09:00:28;97068.28;;;4.48;53.22
75039;BME280;63609;49.992;14.512;2024-03-25T09:02:54;97072.88;;;4.36;53.79
75039;BME280;63609;49.992;14.512;2024-03-25T09:05:21;97074.00;;;4.53;53.19
75039;BME280;63609;49.992;14.512;2024-03-25T09:07:50;97082.19;;;4.60;53.38
75039;BME280;63609;49.992;14.512;2024-03-25T09:10:18;97082.31;;;4.29;53.62
75039;BME280;63609;49.992;14.512;2024-03-25T09:13:02;97093.06;;;4.85;52.73
75039;BME280;63609;49.992;14.512;2024-03-25T09:15:29;97090.97;;;5.08;51.03
75039;BME280;63609;49.992;14.512;2024-03-25T09:17:55;97091.41;;;5.70;49.55
75039;BME280;63609;49.992;14.512;2024-03-25T09:20:22;97082.69;;;5.50;49.45
75039;BME280;63609;49.992;14.512;2024-03-25T09:22:48;97089.28;;;5.93;49.26
75039;BME280;63609;49.992;14.512;2024-03-25T09:25:15;97094.00;;;6.44;48.44
75039;BME280;63609;49.992;14.512;2024-03-25T09:27:46;97091.91;;;6.65;47.35
75039;BME280;63609;49.992;14.512;2024-03-25T09:30:12;97084.94;;;6.19;48.09
75039;BME280;63609;49.992;14.512;2024-03-25T09:32:40;97081.78;;;5.78;49.37
75039;BME280;63609;49.992;14.512;2024-03-25T09:35:07;97094.06;;;5.70;50.03
75039;BME280;63609;49.992;14.512;2024-03-25T09:37:33;97108.81;;;5.06;53.44
75039;BME280;63609;49.992;14.512;2024-03-25T09:39:59;97128.53;;;4.54;55.96
75039;BME280;63609;49.992;14.512;2024-03-25T09:42:33;97136.78;;;4.20;57.42
75039;BME280;63609;49.992;14.512;2024-03-25T09:44:59;97147.44;;;4.00;61.36
75039;BME280;63609;49.992;14.512;2024-03-25T09:47:26;97153.94;;;3.75;64.39
75039;BME280;63609;49.992;14.512;2024-03-25T09:49:54;97155.97;;;3.41;63.38
75039;BME280;63609;49.992;14.512;2024-03-25T09:52:20;97145.38;;;3.82;63.82
75039;BME280;63609;49.992;14.512;2024-03-25T09:54:46;97143.31;;;3.86;64.02
75039;BME280;63609;49.992;14.512;2024-03-25T09:57:14;97137.94;;;3.67;64.58
75039;BME280;63609;49.992;14.512;2024-03-25T09:59:39;97145.41;;;4.22;64.31
75039;BME280;63609;49.992;14.512;2024-03-25T10:02:06;97137.47;;;4.63;61.89
75039;BME280;63609;49.992;14.512;2024-03-25T10:04:40;97131.31;;;4.52;63.13
75039;BME280;63609;49.992;14.512;2024-03-25T10:07:09;97136.31;;;3.96;63.54
75039;BME280;63609;49.992;14.512;2024-03-25T10:09:35;97142.91;;;5.29;61.45
75039;BME280;63609;49.992;14.512;2024-03-25T10:12:01;97134.53;;;4.85;60.04
75039;BME280;63609;49.992;14.512;2024-03-25T10:14:27;97139.09;;;4.54;60.78
75039;BME280;63609;49.992;14.512;2024-03-25T10:16:53;97146.13;;;5.13;60.20
75039;BME280;63609;49.992;14.512;2024-03-25T10:19:18;97144.81;;;5.56;57.93
75039;BME280;63609;49.992;14.512;2024-03-25T10:21:44;97145.88;;;5.92;54.67
75039;BME280;63609;49.992;14.512;2024-03-25T10:24:11;97142.53;;;6.17;55.54
75039;BME280;63609;49.992;14.512;2024-03-25T10:26:36;97134.66;;;6.62;55.01
75039;BME280;63609;49.992;14.512;2024-03-25T10:29:05;97144.97;;;7.19;53.08
75039;BME280;63609;49.992;14.512;2024-03-25T10:31:36;97150.91;;;6.95;52.63
75039;BME280;63609;49.992;14.512;2024-03-25T10:34:03;97152.72;;;6.49;52.88
75039;BME280;63609;49.992;14.512;2024-03-25T10:36:30;97136.25;;;7.26;51.85
75039;BME280;63609;49.992;14.512;2024-03-25T10:38:56;97149.22;;;6.21;52.88
75039;BME280;63609;49.992;14.512;2024-03-25T10:41:23;97145.56;;;6.32;53.19
75039;BME280;63609;49.992;14.512;2024-03-25T10:43:54;97146.84;;;6.73;52.09
75039;BME280;63609;49.992;14.512;2024-03-25T10:46:22;97143.38;;;7.87;49.68
75039;BME280;63609;49.992;14.512;2024-03-25T10:49:02;97152.09;;;7.00;48.49
75039;BME280;63609;49.992;14.512;2024-03-25T10:51:31;97138.16;;;6.35;49.68
75039;BME280;63609;49.992;14.512;2024-03-25T10:53:57;97140.75;;;6.45;50.93
75039;BME280;63609;49.992;14.512;2024-03-25T10:56:24;97132.22;;;6.87;49.59
75039;BME280;63609;49.992;14.512;2024-03-25T10:58:52;97126.78;;;7.06;50.87
75039;BME280;63609;49.992;14.512;2024-03-25T11:01:20;97133.50;;;7.80;49.52
75039;BME280;63609;49.992;14.512;2024-03-25T11:03:46;97134.34;;;6.65;49.12
75039;BME280;63609;49.992;14.512;2024-03-25T11:06:14;97134.13;;;7.12;50.22
75039;BME280;63609;49.992;14.512;2024-03-25T11:08:40;97133.81;;;6.80;48.88
75039;BME280;63609;49.992;14.512;2024-03-25T11:11:07;97136.44;;;6.89;47.55
75039;BME280;63609;49.992;14.512;2024-03-25T11:13:34;97141.25;;;6.76;50.27
75039;BME280;63609;49.992;14.512;2024-03-25T11:16:00;97133.69;;;6.36;49.76
75039;BME280;63609;49.992;14.512;2024-03-25T11:18:27;97135.63;;;6.61;48.60
75039;BME280;63609;49.992;14.512;2024-03-25T11:21:05;97117.72;;;6.18;48.70
75039;BME280;63609;49.992;14.512;2024-03-25T11:23:43;97124.75;;;6.55;48.54
75039;BME280;63609;49.992;14.512;2024-03-25T11:26:40;97121.19;;;6.46;46.52
75039;BME280;63609;49.992;14.512;2024-03-25T11:29:07;97116.09;;;6.80;45.57
75039;BME280;63609;49.992;14.512;2024-03-25T11:31:33;97113.06;;;6.57;45.43
75039;BME280;63609;49.992;14.512;2024-03-25T11:34:05;97109.25;;;7.13;42.13
75039;BME280;63609;49.992;14.512;2024-03-25T11:36:33;97116.53;;;7.47;41.88
75039;BME280;63609;49.992;14.512;2024-03-25T11:39:05;97111.00;;;7.04;41.19
75039;BME280;63609;49.992;14.512;2024-03-25T11:41:42;97104.50;;;6.99;42.10
75039;BME280;63609;49.992;14.512;2024-03-25T11:44:09;97120.19;;;7.72;40.70
75039;BME280;63609;49.992;14.512;2024-03-25T11:46:39;97111.31;;;7.37;42.45
75039;BME280;63609;49.992;14.512;2024-03-25T11:49:12;97113.44;;;7.33;41.21
75039;BME280;63609;49.992;14.512;2024-03-25T11:51:39;97112.59;;;7.15;42.06
75039;BME280;63609;49.992;14.512;2024-03-25T11:54:10;97117.00;;;7.24;43.46
75039;BME280;63609;49.992;14.512;2024-03-25T11:56:37;97117.63;;;7.00;44.93
75039;BME280;63609;49.992;14.512;2024-03-25T11:59:06;97116.25;;;6.61;44.59
75039;BME280;63609;49.992;14.512;2024-03-25T12:01:32;97110.00;;;6.88;44.12
75039;BME280;63609;49.992;14.512;2024-03-25T12:04:31;97113.88;;;7.47;43.33
75039;BME280;63609;49.992;14.512;2024-03-25T12:06:57;97106.13;;;7.53;42.79
75039;BME280;63609;49.992;14.512;2024-03-25T12:09:23;97106.59;;;7.75;41.42
75039;BME280;63609;49.992;14.512;2024-03-25T12:12:08;97105.94;;;8.15;41.73
75039;BME280;63609;49.992;14.512;2024-03-25T12:14:34;97108.28;;;8.18;40.92
75039;BME280;63609;49.992;14.512;2024-03-25T12:17:00;97102.38;;;7.90;41.57
75039;BME280;63609;49.992;14.512;2024-03-25T12:19:26;97117.88;;;7.51;42.37
75039;BME280;63609;49.992;14.512;2024-03-25T12:22:00;97111.16;;;6.85;42.02
75039;BME280;63609;49.992;14.512;2024-03-25T12:24:26;97118.50;;;7.27;42.51
75039;BME280;63609;49.992;14.512;2024-03-25T12:26:54;97114.03;;;7.27;42.98
75039;BME280;63609;49.992;14.512;2024-03-25T12:29:20;97119.09;;;7.56;43.07
75039;BME280;63609;49.992;14.512;2024-03-25T12:31:57;97104.91;;;7.48;42.00
75039;BME280;63609;49.992;14.512;2024-03-25T12:34:26;97110.28;;;7.56;41.12
75039;BME280;63609;49.992;14.512;2024-03-25T12:37:00;97109.16;;;8.18;41.59
75039;BME280;63609;49.992;14.512;2024-03-25T12:39:26;97107.72;;;7.98;40.51
75039;BME280;63609;49.992;14.512;2024-03-25T12:41:53;97106.94;;;8.14;40.80
75039;BME280;63609;49.992;14.512;2024-03-25T12:44:19;97107.28;;;7.85;39.68
75039;BME280;63609;49.992;14.512;2024-03-25T12:46:45;97103.53;;;7.61;40.50
75039;BME280;63609;49.992;14.512;2024-03-25T12:49:12;97103.81;;;7.32;40.63
75039;BME280;63609;49.992;14.512;2024-03-25T12:51:37;97114.81;;;8.23;41.47
75039;BME280;63609;49.992;14.512;2024-03-25T12:54:03;97092.56;;;8.24;39.89
75039;BME280;63609;49.992;14.512;2024-03-25T12:56:29;97101.03;;;8.78;38.63
75039;BME280;63609;49.992;14.512;2024-03-25T12:58:55;97108.72;;;8.98;38.54
75039;BME280;63609;49.992;14.512;2024-03-25T13:01:21;97101.06;;;8.86;38.32
75039;BME280;63609;49.992;14.512;2024-03-25T13:03:47;97106.22;;;9.12;39.51